Time;durP1;ratioP1;P1;durP2;ratioP2;P2;SDS_P1;SDS_P2;PMS_P1;PMS_P2;Temp;Humidity;BMP_temperature;BMP_pressure;BME280_temperature;BME280_humidity;BME280_pressure;Samples;Min_cycle;Max_cycle;Signal;HPM_P1;HPM_P2
2022/04/24 00:01:44;;;;;;;27.15;16.23;;;;;;;8.91;100.00;98491.11;1628506;86;21061;-65
2022/04/24 00:04:12;;;;;;;27.75;16.73;;;;;;;8.94;100.00;98493.76;1627450;86;21236;-65
2022/04/24 00:06:46;;;;;;;29.72;15.88;;;;;;;8.97;100.00;98487.62;1652991;86;21118;-65
2022/04/24 00:09:20;;;;;;;30.92;17.57;;;;;;;8.99;100.00;98490.83;1628023;87;21558;-66
2022/04/24 00:11:47;;;;;;;26.45;16.17;;;;;;;9.01;100.00;98490.50;1646700;86;21016;-65
2022/04/24 00:14:23;;;;;;;30.55;17.02;;;;;;;9.02;100.00;98488.00;1617065;87;21007;-65
2022/04/24 00:17:00;;;;;;;29.72;17.70;;;;;;;9.02;100.00;98495.64;1651940;86;21091;-66
2022/04/24 00:19:32;;;;;;;28.73;17.05;;;;;;;9.03;100.00;98493.14;1627268;86;20996;-66
2022/04/24 00:22:03;;;;;;;27.05;16.90;;;;;;;9.01;100.00;98487.20;1635255;86;21014;-66
2022/04/24 00:24:32;;;;;;;30.70;16.97;;;;;;;9.02;100.00;98490.73;1654495;86;21527;-66
2022/04/24 00:27:09;;;;;;;33.53;17.75;;;;;;;9.01;100.00;98491.30;1635055;86;20999;-66
2022/04/24 00:29:38;;;;;;;35.95;17.87;;;;;;;9.02;100.00;98493.48;1644215;86;21317;-66
2022/04/24 00:32:07;;;;;;;28.65;16.52;;;;;;;9.01;100.00;98491.30;1642347;86;20976;-66
2022/04/24 00:34:42;;;;;;;29.40;17.20;;;;;;;9.00;100.00;98489.70;1604790;86;21011;-66
2022/04/24 00:37:15;;;;;;;;;;;;;;;9.01;100.00;98492.67;1635800;85;21051;-65
2022/04/24 00:39:43;;;;;;;29.37;15.63;;;;;;;8.99;100.00;98490.83;1641116;85;20150;-66
2022/04/24 00:42:12;;;;;;;28.83;17.15;;;;;;;8.97;100.00;98487.62;1634910;86;21166;-66
2022/04/24 00:44:44;;;;;;;32.93;15.90;;;;;;;8.96;100.00;98487.38;1635025;86;21043;-66
2022/04/24 00:47:27;;;;;;;32.20;17.35;;;;;;;8.96;100.00;98482.48;1626564;86;21071;-66
2022/04/24 00:49:54;;;;;;;29.02;16.75;;;;;;;8.97;100.00;98482.15;1635633;85;21083;-66
2022/04/24 00:52:23;;;;;;;30.17;16.25;;;;;;;8.98;100.00;98479.65;1638362;86;21658;-65
2022/04/24 00:54:52;;;;;;;32.88;17.05;;;;;;;9.00;100.00;98477.95;1639890;86;21209;-66
2022/04/24 00:57:19;;;;;;;36.75;18.67;;;;;;;9.01;100.00;98480.35;1635421;86;20967;-66
2022/04/24 00:59:50;;;;;;;32.28;17.65;;;;;;;9.02;100.00;98479.22;1617350;86;21456;-66
2022/04/24 01:02:25;;;;;;;29.15;15.55;;;;;;;9.05;100.00;98484.60;1646198;84;21177;-66
2022/04/24 01:05:01;;;;;;;34.13;17.32;;;;;;;9.06;100.00;98482.09;1637524;85;21094;-66
2022/04/24 01:07:33;;;;;;;39.33;18.15;;;;;;;9.05;100.00;98482.66;1642029;84;21880;-66
2022/04/24 01:10:06;;;;;;;34.73;16.82;;;;;;;9.04;100.00;98487.10;1602938;88;21137;-66
2022/04/24 01:12:37;;;;;;;33.65;16.60;;;;;;;9.00;100.00;98482.86;1635423;86;21003;-66
2022/04/24 01:15:10;;;;;;;31.50;15.75;;;;;;;8.98;100.00;98482.38;1651088;84;21478;-66
2022/04/24 01:17:39;;;;;;;27.10;14.13;;;;;;;8.94;100.00;98481.44;1648408;84;21201;-66
2022/04/24 01:20:27;;;;;;;34.38;15.93;;;;;;;8.91;100.00;98476.63;1652533;85;21800;-66
2022/04/24 01:22:59;;;;;;;25.48;13.53;;;;;;;8.88;100.00;98480.02;1636273;85;38894;-66
2022/04/24 01:25:26;;;;;;;26.27;14.00;;;;;;;8.86;100.00;98478.18;1646698;84;21076;-66
2022/04/24 01:28:02;;;;;;;25.45;12.98;;;;;;;8.82;100.00;98480.77;1625210;86;21039;-66
2022/04/24 01:30:32;;;;;;;24.10;12.30;;;;;;;8.83;100.00;98482.95;1633991;86;21071;-66
2022/04/24 01:33:03;;;;;;;19.07;12.28;;;;;;;8.80;100.00;98483.04;1650345;86;21189;-65
2022/04/24 01:35:38;;;;;;;23.65;11.78;;;;;;;8.78;100.00;98487.23;1649320;84;21169;-65
2022/04/24 01:38:09;;;;;;;19.48;11.12;;;;;;;8.75;100.00;98485.16;1658394;85;20987;-66
2022/04/24 01:40:41;;;;;;;16.57;10.88;;;;;;;8.72;100.00;98489.92;1641815;86;21018;-65
2022/04/24 01:43:12;;;;;;;16.77;11.12;;;;;;;8.69;100.00;98491.37;1655115;85;21589;-65
2022/04/24 01:45:48;;;;;;;16.27;10.00;;;;;;;8.68;100.00;98495.81;1651486;85;21287;-65
2022/04/24 01:48:14;;;;;;;14.23;9.35;;;;;;;8.64;100.00;98490.78;1643776;86;21066;-65
2022/04/24 01:50:48;;;;;;;11.95;8.68;;;;;;;8.58;100.00;98484.70;1628108;86;20972;-64
2022/04/24 01:53:21;;;;;;;13.25;9.05;;;;;;;8.54;100.00;98494.13;1643670;85;21471;-65
2022/04/24 01:55:56;;;;;;;16.30;10.60;;;;;;;8.51;100.00;98497.52;1647219;84;21045;-65
2022/04/24 01:58:27;;;;;;;13.55;9.45;;;;;;;8.49;100.00;98501.70;1645637;85;21122;-65
2022/04/24 02:00:58;;;;;;;16.37;9.57;;;;;;;8.46;100.00;98508.63;1643098;84;21499;-65
2022/04/24 02:03:31;;;;;;;16.00;10.23;;;;;;;8.47;100.00;98514.90;1631528;86;20999;-65
2022/04/24 02:06:05;;;;;;;11.75;8.90;;;;;;;8.47;100.00;98513.53;1629583;86;21051;-65
2022/04/24 02:08:37;;;;;;;15.65;9.68;;;;;;;8.43;100.00;98514.75;1632282;87;20946;-65
2022/04/24 02:11:09;;;;;;;14.30;9.58;;;;;;;8.40;100.00;98524.17;1653244;85;21933;-65
2022/04/24 02:13:40;;;;;;;16.07;9.10;;;;;;;8.37;100.00;98529.73;1650235;86;21104;-65
2022/04/24 02:16:15;;;;;;;8.80;6.90;;;;;;;8.35;100.00;98534.72;1649136;85;21072;-65
2022/04/24 02:18:41;;;;;;;;;;;;;;;8.29;100.00;98535.98;1654223;85;21048;-65
2022/04/24 02:21:13;;;;;;;8.40;6.17;;;;;;;8.23;100.00;98544.92;1650763;84;20153;-65
2022/04/24 02:23:42;;;;;;;11.78;7.35;;;;;;;8.16;100.00;98549.27;1650258;84;21237;-65
2022/04/24 02:26:15;;;;;;;9.33;6.80;;;;;;;8.08;100.00;98544.09;1620956;86;21082;-65
2022/04/24 02:28:47;;;;;;;9.28;7.00;;;;;;;8.00;100.00;98552.30;1630590;86;20955;-65
2022/04/24 02:31:20;;;;;;;14.55;9.08;;;;;;;7.94;100.00;98559.85;1653696;86;20988;-65
2022/04/24 02:33:54;;;;;;;17.45;9.98;;;;;;;7.88;100.00;98555.11;1606846;84;21148;-65
2022/04/24 02:36:21;;;;;;;13.65;8.13;;;;;;;7.83;100.00;98549.80;1653651;84;21905;-65
2022/04/24 02:38:56;;;;;;;12.23;7.70;;;;;;;7.81;100.00;98556.72;1645085;86;21464;-65
2022/04/24 02:41:27;;;;;;;11.78;7.78;;;;;;;7.76;100.00;98550.84;1649218;85;21043;-66
2022/04/24 02:44:00;;;;;;;9.35;7.20;;;;;;;7.71;100.00;98551.00;1639083;85;21014;-65
2022/04/24 02:46:33;;;;;;;11.40;7.42;;;;;;;7.63;100.00;98554.53;1643998;86;21035;-65
2022/04/24 02:49:03;;;;;;;9.38;7.40;;;;;;;7.54;100.00;98560.55;1648996;86;21185;-65
2022/04/24 02:51:36;;;;;;;10.75;7.83;;;;;;;7.45;100.00;98571.48;1641061;85;21514;-65
2022/04/24 02:54:09;;;;;;;10.88;8.08;;;;;;;7.36;100.00;98572.59;1633993;85;21028;-65
2022/04/24 02:56:36;;;;;;;14.25;9.53;;;;;;;7.26;100.00;98579.15;1650624;86;28499;-65
2022/04/24 02:59:06;;;;;;;12.80;9.40;;;;;;;7.18;100.00;98587.55;1644935;85;21023;-64
2022/04/24 03:01:40;;;;;;;10.75;8.13;;;;;;;7.12;100.00;98595.64;1572018;89;21015;-65
2022/04/24 03:04:14;;;;;;;12.15;9.20;;;;;;;7.06;100.00;98600.19;1619728;87;21127;-65
2022/04/24 03:06:48;;;;;;;12.80;9.20;;;;;;;6.99;100.00;98604.73;1636879;85;21062;-65
2022/04/24 03:09:17;;;;;;;15.10;9.33;;;;;;;6.94;100.00;98617.16;1638696;85;20951;-64
2022/04/24 03:11:48;;;;;;;14.35;9.90;;;;;;;6.89;100.00;98616.77;1636718;86;21125;-65
2022/04/24 03:14:24;;;;;;;13.65;9.78;;;;;;;6.86;100.00;98617.39;1641110;85;21175;-64
2022/04/24 03:16:53;;;;;;;12.18;8.48;;;;;;;6.83;100.00;98624.03;1654053;85;21122;-65
2022/04/24 03:19:24;;;;;;;13.93;10.25;;;;;;;6.79;100.00;98621.68;1655324;85;21031;-64
2022/04/24 03:21:50;;;;;;;16.65;10.98;;;;;;;6.75;100.00;98622.06;1636694;86;20996;-64
2022/04/24 03:24:21;;;;;;;13.80;9.90;;;;;;;6.71;100.00;98631.98;1650545;85;20980;-64
2022/04/24 03:26:56;;;;;;;15.60;10.90;;;;;;;6.68;100.00;98639.42;1647394;85;20951;-65
2022/04/24 03:29:35;;;;;;;17.02;10.50;;;;;;;6.65;100.00;98638.69;1657540;86;21639;-65
2022/04/24 03:32:06;;;;;;;;;;;;;;;6.61;100.00;98642.59;1633521;85;20983;-64
2022/04/24 03:34:32;;;;;;;17.48;11.43;;;;;;;6.61;100.00;98642.03;1644443;85;20262;-65
2022/04/24 03:37:04;;;;;;;17.27;11.70;;;;;;;6.61;100.00;98645.32;1648376;85;20995;-64
2022/04/24 03:39:36;;;;;;;15.58;11.43;;;;;;;6.62;100.00;98651.02;1621030;87;21015;-65
2022/04/24 03:42:08;;;;;;;14.93;11.30;;;;;;;6.65;100.00;98653.13;1645214;86;20955;-66
2022/04/24 03:44:38;;;;;;;16.93;11.28;;;;;;;6.69;100.00;98646.49;1652455;85;21117;-66
2022/04/24 03:47:08;;;;;;;14.45;10.78;;;;;;;6.71;100.00;98649.16;1648920;85;21542;-66
2022/04/24 03:49:37;;;;;;;14.65;11.15;;;;;;;6.75;100.00;98649.34;1645510;84;21589;-65
2022/04/24 03:52:11;;;;;;;15.53;12.05;;;;;;;6.78;100.00;98654.17;1647920;85;21278;-66
2022/04/24 03:54:41;;;;;;;17.87;12.20;;;;;;;6.79;100.00;98650.33;1639288;86;21013;-66
2022/04/24 03:57:17;;;;;;;17.50;11.48;;;;;;;6.81;100.00;98654.91;1653209;85;21083;-66
2022/04/24 03:59:44;;;;;;;16.97;12.30;;;;;;;6.83;100.00;98654.04;1596744;88;21063;-66
2022/04/24 04:02:15;;;;;;;17.00;11.60;;;;;;;6.85;100.00;98658.06;1636596;85;21061;-65
2022/04/24 04:04:46;;;;;;;16.70;12.43;;;;;;;6.86;100.00;98658.87;1629367;86;22244;-65
2022/04/24 04:07:20;;;;;;;14.43;10.72;;;;;;;6.90;100.00;98655.77;1628170;86;21036;-65
2022/04/24 04:09:55;;;;;;;16.15;11.70;;;;;;;6.92;100.00;98657.62;1632050;86;20960;-66
2022/04/24 04:12:27;;;;;;;16.37;12.18;;;;;;;6.94;100.00;98662.17;1646241;85;21198;-66
2022/04/24 04:15:05;;;;;;;16.32;11.60;;;;;;;6.95;100.00;98665.15;1642859;85;21024;-65
2022/04/24 04:17:32;;;;;;;15.98;12.25;;;;;;;6.98;100.00;98657.70;1644918;86;21775;-65
2022/04/24 04:20:00;;;;;;;16.73;12.07;;;;;;;7.05;100.00;98656.70;1622330;85;20996;-65
2022/04/24 04:22:36;;;;;;;18.20;12.10;;;;;;;7.08;100.00;98662.09;1631191;86;21572;-65
2022/04/24 04:25:09;;;;;;;17.52;12.40;;;;;;;7.08;100.00;98668.34;1656184;86;21127;-65
2022/04/24 04:27:41;;;;;;;15.32;11.30;;;;;;;7.10;100.00;98670.20;1640736;86;21020;-64
2022/04/24 04:30:12;;;;;;;15.43;11.35;;;;;;;7.14;100.00;98674.48;1635100;85;21024;-65
2022/04/24 04:32:43;;;;;;;20.77;13.70;;;;;;;7.16;100.00;98673.60;1602415;86;21213;-64
2022/04/24 04:35:11;;;;;;;17.98;12.47;;;;;;;7.22;100.00;98681.34;1653821;84;21099;-66
2022/04/24 04:37:40;;;;;;;16.45;12.30;;;;;;;7.25;100.00;98673.89;1641529;84;21004;-65
2022/04/24 04:40:13;;;;;;;21.12;12.33;;;;;;;7.26;100.00;98678.23;1642306;85;20960;-66
2022/04/24 04:42:45;;;;;;;17.75;12.40;;;;;;;7.27;100.00;98685.30;1604248;87;21259;-65
2022/04/24 04:45:17;;;;;;;20.02;12.45;;;;;;;7.26;100.00;98686.98;1633403;86;21548;-66
2022/04/24 04:47:52;;;;;;;18.32;12.93;;;;;;;7.29;100.00;98691.25;1630898;86;21056;-66
2022/04/24 04:50:25;;;;;;;18.57;13.35;;;;;;;7.36;100.00;98685.89;1617239;87;21622;-66
2022/04/24 04:52:53;;;;;;;17.82;12.80;;;;;;;7.41;100.00;98695.31;1625137;85;21075;-66
2022/04/24 04:55:23;;;;;;;21.23;11.95;;;;;;;7.43;100.00;98696.61;1609947;87;21313;-67
2022/04/24 04:57:52;;;;;;;18.37;13.00;;;;;;;7.46;100.00;98700.64;1600697;87;21025;-67
2022/04/24 05:00:22;;;;;;;16.07;12.05;;;;;;;7.49;100.00;98698.08;1629544;85;21548;-67
2022/04/24 05:02:54;;;;;;;17.12;12.78;;;;;;;7.54;100.00;98701.20;1626569;86;21023;-65
2022/04/24 05:05:27;;;;;;;17.10;11.73;;;;;;;7.59;100.00;98711.98;1618176;87;21072;-66
2022/04/24 05:08:01;;;;;;;16.27;12.13;;;;;;;7.65;100.00;98706.63;1602074;87;20924;-67
2022/04/24 05:10:33;;;;;;;19.52;13.75;;;;;;;7.75;100.00;98701.43;1628606;85;21076;-67
2022/04/24 05:13:03;;;;;;;18.23;13.08;;;;;;;7.84;100.00;98709.09;1602226;87;21107;-68
2022/04/24 05:15:32;;;;;;;16.67;12.55;;;;;;;7.88;100.00;98710.87;1600747;88;20979;-66
2022/04/24 05:18:00;;;;;;;17.67;12.28;;;;;;;7.94;100.00;98709.59;1606813;87;21020;-67
2022/04/24 05:20:29;;;;;;;19.70;11.88;;;;;;;8.01;100.00;98709.12;1598367;86;22583;-66
2022/04/24 05:23:07;;;;;;;18.48;12.93;;;;;;;8.09;100.00;98707.50;1588712;87;21618;-69
2022/04/24 05:25:34;;;;;;;19.48;13.25;;;;;;;8.13;100.00;98713.94;1624918;86;20960;-67
2022/04/24 05:28:05;;;;;;;20.35;13.68;;;;;;;8.17;100.00;98715.72;1616962;87;20993;-66
2022/04/24 05:30:33;;;;;;;18.20;13.50;;;;;;;8.26;100.00;98708.33;1648808;86;20998;-68
2022/04/24 05:33:02;;;;;;;16.42;12.25;;;;;;;8.35;100.00;98708.37;1642271;85;21027;-66
2022/04/24 05:35:31;;;;;;;16.93;11.93;;;;;;;8.41;100.00;98708.45;1633491;85;21201;-69
2022/04/24 05:37:58;;;;;;;20.35;13.15;;;;;;;8.46;100.00;98706.12;1629541;85;21614;-69
2022/04/24 05:40:26;;;;;;;17.30;12.47;;;;;;;8.52;100.00;98713.84;1624221;86;20955;-68
2022/04/24 05:42:54;;;;;;;16.23;12.58;;;;;;;8.64;100.00;98716.50;1598783;88;21503;-68
2022/04/24 05:45:25;;;;;;;16.02;12.40;;;;;;;8.77;100.00;98720.41;1612069;87;20964;-69
2022/04/24 05:47:54;;;;;;;14.78;11.97;;;;;;;8.90;100.00;98716.68;1625380;87;21206;-68
2022/04/24 05:50:23;;;;;;;16.12;12.03;;;;;;;9.02;98.99;98717.39;1623747;87;21590;-66
2022/04/24 05:52:52;;;;;;;15.58;10.50;;;;;;;9.07;96.18;98716.41;1618966;87;21116;-68
2022/04/24 05:55:19;;;;;;;15.83;11.38;;;;;;;9.08;95.45;98723.50;1624899;86;21004;-67
2022/04/24 05:57:49;;;;;;;17.55;11.50;;;;;;;9.12;94.83;98720.34;1622647;87;21140;-68
2022/04/24 06:00:17;;;;;;;17.40;11.60;;;;;;;9.19;95.17;98715.98;1625877;87;20917;-68
2022/04/24 06:02:46;;;;;;;14.23;10.65;;;;;;;9.31;94.96;98715.27;1619708;86;21633;-65
2022/04/24 06:05:13;;;;;;;15.25;11.38;;;;;;;9.43;92.53;98714.59;1642236;85;21162;-65
2022/04/24 06:07:40;;;;;;;13.40;10.20;;;;;;;9.53;90.54;98715.59;1644945;85;21573;-65
2022/04/24 06:10:09;;;;;;;14.38;10.23;;;;;;;9.57;89.30;98711.07;1657667;85;21340;-65
2022/04/24 06:12:50;;;;;;;12.65;10.32;;;;;;;9.66;89.85;98724.73;1649009;85;21004;-65
2022/04/24 06:15:21;;;;;;;13.18;9.85;;;;;;;9.73;86.97;98721.72;1648987;85;21118;-66
2022/04/24 06:17:52;;;;;;;14.40;9.65;;;;;;;9.78;86.89;98721.53;1652277;85;21602;-66
2022/04/24 06:20:20;;;;;;;14.15;9.98;;;;;;;9.90;88.65;98722.97;1655268;84;21012;-65
2022/04/24 06:22:53;;;;;;;12.33;9.08;;;;;;;9.99;84.27;98722.92;1653302;85;21187;-66
2022/04/24 06:25:32;;;;;;;14.80;10.13;;;;;;;10.03;82.78;98728.55;1636525;85;21103;-68
2022/04/24 06:28:02;;;;;;;13.18;9.13;;;;;;;10.07;83.31;98724.01;1644894;85;21107;-68
2022/04/24 06:30:31;;;;;;;12.80;9.00;;;;;;;10.16;80.94;98732.42;1640739;86;21055;-68
2022/04/24 06:32:57;;;;;;;14.47;9.35;;;;;;;10.19;78.99;98735.90;1625084;87;21155;-69
2022/04/24 06:35:24;;;;;;;12.40;8.83;;;;;;;10.21;79.88;98741.86;1627022;86;23207;-68
2022/04/24 06:37:53;;;;;;;12.13;8.85;;;;;;;10.30;78.28;98745.91;1647173;86;21092;-68
2022/04/24 06:40:23;;;;;;;11.03;8.23;;;;;;;10.40;79.16;98744.13;1650142;85;21074;-68
2022/04/24 06:43:01;;;;;;;9.53;7.20;;;;;;;10.48;76.26;98740.52;1644372;85;21482;-67
2022/04/24 06:45:33;;;;;;;10.70;7.85;;;;;;;10.51;75.70;98742.59;1644464;85;21523;-67
2022/04/24 06:48:06;;;;;;;10.45;7.03;;;;;;;10.58;76.00;98737.37;1643526;86;21637;-67
2022/04/24 06:50:34;;;;;;;11.08;8.13;;;;;;;10.68;73.03;98742.22;1652665;85;20928;-67
2022/04/24 06:53:07;;;;;;;10.03;6.53;;;;;;;10.75;74.01;98738.37;1653593;84;21028;-67
2022/04/24 06:55:36;;;;;;;10.35;7.53;;;;;;;10.93;73.89;98737.08;1648432;86;21027;-66
2022/04/24 06:58:06;;;;;;;9.58;7.42;;;;;;;11.04;70.23;98740.98;1653666;85;21084;-66
2022/04/24 07:00:36;;;;;;;11.10;6.47;;;;;;;11.04;71.57;98744.30;1636990;86;21238;-67
2022/04/24 07:03:16;;;;;;;8.60;6.67;;;;;;;11.08;67.25;98745.22;1652902;85;21019;-67
2022/04/24 07:05:43;;;;;;;10.15;6.92;;;;;;;11.09;66.76;98739.97;1655169;84;21042;-66
2022/04/24 07:08:11;;;;;;;11.60;7.00;;;;;;;11.18;66.98;98747.55;1657783;84;21444;-67
2022/04/24 07:10:39;;;;;;;9.85;7.15;;;;;;;11.29;70.18;98746.55;1653921;85;21504;-68
2022/04/24 07:13:07;;;;;;;8.25;6.10;;;;;;;11.42;66.64;98752.31;1648066;85;21115;-67
2022/04/24 07:15:39;;;;;;;8.28;6.20;;;;;;;11.55;67.24;98751.19;1649542;85;21126;-67
2022/04/24 07:18:07;;;;;;;;;;;;;;;11.73;68.29;98758.63;1635125;86;21595;-67
2022/04/24 07:20:37;;;;;;;9.93;6.10;;;;;;;11.92;67.89;98754.78;1646985;86;20102;-67
2022/04/24 07:23:07;;;;;;;7.22;4.78;;;;;;;12.13;68.35;98758.20;1656848;84;21025;-67
2022/04/24 07:25:41;;;;;;;7.00;4.83;;;;;;;12.38;62.63;98754.84;1648206;85;21618;-67
2022/04/24 07:28:12;;;;;;;6.72;4.85;;;;;;;12.44;59.92;98752.08;1641904;84;20952;-67
2022/04/24 07:30:40;;;;;;;6.37;4.90;;;;;;;12.46;60.67;98745.66;1640481;86;21023;-67
2022/04/24 07:33:09;;;;;;;7.65;4.53;;;;;;;12.56;59.76;98752.06;1654804;85;20972;-68
2022/04/24 07:35:38;;;;;;;8.85;5.58;;;;;;;12.71;59.51;98757.98;1647198;86;21094;-67
2022/04/24 07:38:04;;;;;;;11.70;6.30;;;;;;;12.85;57.50;98749.54;1649658;84;21210;-67
2022/04/24 07:40:37;;;;;;;8.15;5.22;;;;;;;12.97;56.85;98758.33;1648080;84;21121;-67
2022/04/24 07:43:07;;;;;;;7.08;4.55;;;;;;;13.01;56.00;98766.13;1645744;86;21059;-67
2022/04/24 07:45:46;;;;;;;7.17;4.97;;;;;;;13.05;55.54;98765.65;1646704;85;21008;-67
2022/04/24 07:48:16;;;;;;;6.62;4.78;;;;;;;13.19;57.00;98752.88;1649282;85;21618;-67
2022/04/24 07:50:48;;;;;;;5.87;5.20;;;;;;;13.59;57.10;98755.50;1644017;85;21563;-66
2022/04/24 07:53:16;;;;;;;6.83;4.87;;;;;;;13.87;52.79;98742.98;1645826;85;21454;-67
2022/04/24 07:55:48;;;;;;;7.03;4.97;;;;;;;13.76;53.99;98755.73;1639061;84;22318;-67
2022/04/24 07:58:15;;;;;;;6.90;5.28;;;;;;;13.72;54.19;98754.27;1631134;86;21206;-68
2022/04/24 08:00:43;;;;;;;7.70;4.95;;;;;;;13.87;54.39;98750.67;1645950;85;21110;-67
2022/04/24 08:03:13;;;;;;;6.90;4.65;;;;;;;14.08;52.43;98752.35;1641670;84;21487;-67
2022/04/24 08:05:48;;;;;;;5.30;4.75;;;;;;;14.30;52.88;98745.38;1649481;85;21163;-67
2022/04/24 08:08:23;;;;;;;7.90;4.70;;;;;;;14.43;51.48;98749.08;1642142;84;21004;-67
2022/04/24 08:10:54;;;;;;;5.20;3.98;;;;;;;14.34;51.67;98751.20;1651347;84;21161;-67
2022/04/24 08:13:23;;;;;;;5.83;4.35;;;;;;;14.19;51.32;98743.75;1635775;85;20877;-67
2022/04/24 08:15:50;;;;;;;5.00;4.30;;;;;;;14.23;51.93;98750.73;1649108;85;21446;-67
2022/04/24 08:18:18;;;;;;;6.80;4.85;;;;;;;14.49;52.47;98748.18;1643337;84;20912;-67
2022/04/24 08:20:45;;;;;;;6.42;4.80;;;;;;;14.79;50.06;98747.06;1624297;84;21070;-67
2022/04/24 08:23:15;;;;;;;6.53;4.58;;;;;;;14.94;49.08;98747.58;1645035;84;21035;-67
2022/04/24 08:25:43;;;;;;;6.00;4.28;;;;;;;14.98;49.29;98752.59;1656685;85;21075;-67
2022/04/24 08:28:12;;;;;;;6.17;4.58;;;;;;;15.05;48.72;98758.23;1638702;84;21165;-67
2022/04/24 08:30:43;;;;;;;12.78;4.62;;;;;;;15.18;49.69;98753.36;1655412;85;20999;-67
2022/04/24 08:33:10;;;;;;;5.08;4.40;;;;;;;15.21;48.80;98755.39;1641245;85;21135;-67
2022/04/24 08:35:37;;;;;;;8.55;4.53;;;;;;;15.24;47.66;98760.19;1647494;86;20981;-67
2022/04/24 08:38:05;;;;;;;5.75;4.10;;;;;;;15.38;50.45;98745.84;1637318;86;21000;-67
2022/04/24 08:40:33;;;;;;;5.05;4.03;;;;;;;15.73;47.69;98763.66;1642629;86;21254;-67
2022/04/24 08:43:00;;;;;;;5.72;4.45;;;;;;;15.82;44.44;98765.61;1652061;84;21108;-67
2022/04/24 08:45:29;;;;;;;6.25;4.72;;;;;;;15.76;44.64;98772.03;1654439;84;21031;-67
2022/04/24 08:47:58;;;;;;;6.12;4.05;;;;;;;15.85;45.86;98773.97;1647311;84;21539;-67
2022/04/24 08:50:28;;;;;;;7.58;5.03;;;;;;;16.15;45.28;98773.28;1630222;86;21021;-67
2022/04/24 08:52:57;;;;;;;8.25;4.35;;;;;;;16.33;46.63;98774.33;1628679;85;21094;-68
2022/04/24 08:55:27;;;;;;;5.35;4.15;;;;;;;16.42;44.78;98768.52;1650373;85;21346;-67
2022/04/24 08:57:55;;;;;;;5.40;4.17;;;;;;;16.50;45.11;98775.77;1652466;84;21178;-68
2022/04/24 09:00:23;;;;;;;5.17;4.40;;;;;;;16.69;44.95;98779.04;1646440;86;21080;-68
2022/04/24 09:02:51;;;;;;;6.47;5.05;;;;;;;16.90;43.21;98776.53;1627567;86;21011;-68
2022/04/24 09:05:20;;;;;;;7.10;4.97;;;;;;;17.00;44.22;98768.14;1626560;86;21209;-69
2022/04/24 09:07:47;;;;;;;6.78;4.83;;;;;;;17.21;43.90;98759.28;1635940;86;20952;-68
2022/04/24 09:10:14;;;;;;;6.85;4.72;;;;;;;17.38;44.61;98762.81;1632063;86;20936;-69
2022/04/24 09:12:42;;;;;;;8.28;4.80;;;;;;;17.31;43.98;98776.63;1643374;86;20989;-68
2022/04/24 09:15:15;;;;;;;7.37;4.62;;;;;;;17.09;44.86;98763.90;1640927;86;21176;-68
2022/04/24 09:17:42;;;;;;;6.47;4.70;;;;;;;16.84;44.92;98771.90;1649072;85;21880;-69
2022/04/24 09:20:18;;;;;;;5.05;4.35;;;;;;;16.41;44.11;98763.56;1653894;85;21064;-69
2022/04/24 09:22:47;;;;;;;4.40;3.77;;;;;;;16.05;45.29;98775.28;1645317;86;21487;-69
2022/04/24 09:25:15;;;;;;;5.15;4.50;;;;;;;16.07;46.52;98771.56;1616480;87;21569;-69
2022/04/24 09:27:41;;;;;;;5.53;4.92;;;;;;;16.54;46.30;98773.05;1635543;85;21544;-68
2022/04/24 09:30:14;;;;;;;5.40;4.28;;;;;;;17.08;45.61;98772.02;1647207;84;21274;-69
2022/04/24 09:32:48;;;;;;;5.65;4.17;;;;;;;17.50;45.15;98770.88;1633658;85;21594;-69
2022/04/24 09:35:32;;;;;;;5.45;4.00;;;;;;;17.57;43.80;98772.34;1652911;85;20996;-69
2022/04/24 09:38:14;;;;;;;4.72;3.90;;;;;;;17.30;43.60;98780.59;1637393;85;21062;-68
2022/04/24 09:40:48;;;;;;;7.72;4.35;;;;;;;16.93;43.64;98786.06;1631389;86;21021;-67
2022/04/24 09:43:17;;;;;;;6.17;4.90;;;;;;;16.58;43.65;98787.75;1634765;86;21164;-67
2022/04/24 09:45:53;;;;;;;4.78;4.12;;;;;;;16.49;43.70;98783.28;1600912;89;21052;-67
2022/04/24 09:48:22;;;;;;;5.25;4.08;;;;;;;16.69;43.99;98788.16;1640883;86;21561;-67
2022/04/24 09:50:51;;;;;;;5.15;3.83;;;;;;;16.88;43.86;98786.39;1632884;86;21033;-67
2022/04/24 09:53:21;;;;;;;4.00;3.30;;;;;;;16.91;43.75;98787.83;1626357;86;20901;-67
2022/04/24 09:55:50;;;;;;;4.50;3.52;;;;;;;17.08;43.66;98780.92;1630712;86;21158;-67
2022/04/24 09:58:18;;;;;;;4.70;3.62;;;;;;;17.29;44.78;98785.92;1624573;84;21656;-67
2022/04/24 10:00:46;;;;;;;3.47;3.17;;;;;;;17.60;44.08;98783.27;1630967;86;21027;-67
2022/04/24 10:03:16;;;;;;;4.37;3.80;;;;;;;17.65;41.61;98777.38;1601416;88;20992;-66
2022/04/24 10:05:45;;;;;;;6.20;4.45;;;;;;;17.34;43.00;98784.97;1630075;85;21112;-68
2022/04/24 10:08:13;;;;;;;6.65;4.70;;;;;;;17.28;43.84;98782.35;1624137;86;21838;-67
2022/04/24 10:10:43;;;;;;;4.87;3.72;;;;;;;17.31;44.78;98780.80;1621263;86;21073;-68
2022/04/24 10:13:12;;;;;;;4.50;3.45;;;;;;;17.22;44.33;98784.45;1619451;86;21092;-68
2022/04/24 10:15:48;;;;;;;3.92;3.52;;;;;;;16.95;46.07;98783.72;1621085;87;21136;-68
2022/04/24 10:18:38;;;;;;;5.70;4.03;;;;;;;16.89;45.64;98790.17;1609837;87;21085;-68
2022/04/24 10:21:21;;;;;;;3.58;3.27;;;;;;;17.09;45.34;98778.35;1598489;88;21059;-67
2022/04/24 10:23:49;;;;;;;6.00;3.75;;;;;;;17.52;43.60;98785.76;1630104;87;21612;-67
2022/04/24 10:26:19;;;;;;;4.95;4.08;;;;;;;17.94;43.32;98777.06;1619756;87;21027;-68
2022/04/24 10:28:47;;;;;;;4.08;3.67;;;;;;;18.28;43.15;98779.13;1610193;86;21051;-68
2022/04/24 10:31:16;;;;;;;5.10;3.42;;;;;;;18.34;41.62;98777.00;1617172;87;21499;-68
2022/04/24 10:33:52;;;;;;;4.97;3.80;;;;;;;18.23;42.19;98779.48;1576814;87;20944;-67
2022/04/24 10:36:19;;;;;;;3.98;3.37;;;;;;;18.04;41.58;98769.41;1615837;87;21113;-66
2022/04/24 10:38:52;;;;;;;3.92;2.98;;;;;;;17.60;41.52;98777.12;1610003;87;21542;-66
2022/04/24 10:41:23;;;;;;;4.37;3.65;;;;;;;17.62;42.64;98793.40;1617988;87;21070;-66
2022/04/24 10:43:57;;;;;;;5.45;3.77;;;;;;;18.03;43.82;98789.44;1609202;86;21570;-67
2022/04/24 10:46:29;;;;;;;15.45;4.15;;;;;;;18.46;40.77;98791.17;1613279;87;21257;-66
2022/04/24 10:49:11;;;;;;;5.15;3.30;;;;;;;18.62;41.44;98783.94;1604318;86;20999;-67
2022/04/24 10:51:40;;;;;;;4.05;3.62;;;;;;;18.69;41.28;98786.17;1626096;84;21577;-65
2022/04/24 10:54:08;;;;;;;3.58;3.08;;;;;;;18.87;41.73;98788.25;1631860;84;20964;-66
2022/04/24 10:56:38;;;;;;;3.42;3.00;;;;;;;18.84;40.73;98782.88;1634944;84;20996;-67
2022/04/24 10:59:15;;;;;;;5.00;3.60;;;;;;;18.69;39.07;98791.73;1636017;84;21292;-66
2022/04/24 11:01:43;;;;;;;4.70;3.35;;;;;;;18.39;40.47;98794.70;1646225;85;20961;-68
2022/04/24 11:04:14;;;;;;;4.37;3.50;;;;;;;18.11;41.37;98788.91;1630059;85;21043;-67
2022/04/24 11:06:58;;;;;;;5.08;3.90;;;;;;;18.04;41.18;98792.42;1623154;86;21009;-67
2022/04/24 11:09:32;;;;;;;3.22;2.75;;;;;;;17.94;42.45;98802.84;1643964;86;21532;-67
2022/04/24 11:12:03;;;;;;;4.90;3.58;;;;;;;17.76;41.43;98794.38;1639018;85;21178;-66
2022/04/24 11:14:32;;;;;;;5.55;3.55;;;;;;;17.68;42.52;98788.54;1652267;85;21110;-67
2022/04/24 11:17:00;;;;;;;8.00;4.70;;;;;;;17.99;43.01;98784.45;1634962;86;21101;-66
2022/04/24 11:19:34;;;;;;;4.58;3.95;;;;;;;18.53;42.94;98778.69;1657594;85;21000;-67
2022/04/24 11:22:10;;;;;;;4.22;2.95;;;;;;;18.95;41.45;98789.30;1650750;86;21546;-67
2022/04/24 11:24:40;;;;;;;4.53;3.45;;;;;;;19.06;39.19;98783.78;1635913;85;21016;-66
2022/04/24 11:27:12;;;;;;;3.60;3.25;;;;;;;18.68;39.65;98782.39;1598635;86;21010;-66
2022/04/24 11:29:40;;;;;;;4.08;3.00;;;;;;;18.53;40.26;98783.45;1625390;85;20992;-66
2022/04/24 11:32:08;;;;;;;4.42;3.02;;;;;;;18.70;40.18;98785.58;1601444;86;20876;-67
2022/04/24 11:34:37;;;;;;;5.95;3.45;;;;;;;18.96;40.26;98776.98;1606769;87;21024;-67
2022/04/24 11:37:05;;;;;;;4.33;3.10;;;;;;;19.21;40.21;98774.28;1626468;87;21158;-67
2022/04/24 11:39:32;;;;;;;3.67;2.65;;;;;;;19.55;40.59;98780.39;1628730;87;21470;-66
2022/04/24 11:42:00;;;;;;;3.77;3.12;;;;;;;19.86;37.79;98772.46;1632605;87;21016;-67
2022/04/24 11:50:14;;;;;;;4.08;3.22;;;;;;;20.52;37.42;98770.06;1613429;86;21103;-67